Time;durP1;ratioP1;P1;durP2;ratioP2;P2;SDS_P1;SDS_P2;PMS_P1;PMS_P2;Temp;Humidity;BMP_temperature;BMP_pressure;BME280_temperature;BME280_humidity;BME280_pressure;Samples;Min_cycle;Max_cycle;Signal;HPM_P1;HPM_P2
2023/07/12 00:00:47;;;;;;;0.90;0.80;;;;;;;21.93;90.14;95406.06;4338768;32;20188;-61
2023/07/12 00:03:14;;;;;;;0.80;0.80;;;;;;;21.83;90.94;95409.38;4336696;32;20237;-62
2023/07/12 00:05:39;;;;;;;0.50;0.50;;;;;;;21.97;90.36;95422.34;4334601;32;20174;-62
2023/07/12 00:08:05;;;;;;;28.50;1.30;;;;;;;21.83;91.03;95422.88;4338377;32;20204;-62
2023/07/12 00:10:35;;;;;;;1.07;1.07;;;;;;;21.83;91.31;95430.97;4341728;32;20248;-62
2023/07/12 00:13:01;;;;;;;1.70;0.70;;;;;;;21.99;88.90;95435.47;4332385;32;20189;-62
2023/07/12 00:15:30;;;;;;;0.67;0.67;;;;;;;22.05;89.11;95440.22;4332478;32;20257;-62
2023/07/12 00:17:56;;;;;;;1.30;1.20;;;;;;;21.94;91.36;95440.03;4325897;32;20182;-61
2023/07/12 00:20:27;;;;;;;1.47;1.20;;;;;;;21.96;89.64;95445.09;4341911;32;20181;-60
2023/07/12 00:22:53;;;;;;;1.40;1.30;;;;;;;22.01;89.37;95435.94;4343391;32;20248;-62
2023/07/12 00:25:21;;;;;;;0.40;0.40;;;;;;;22.00;89.09;95453.25;4343750;32;20173;-63
2023/07/12 00:27:47;;;;;;;0.93;0.93;;;;;;;21.86;91.19;95446.47;4344148;32;20235;-61
2023/07/12 00:30:41;;;;;;;0.57;0.53;;;;;;;21.88;89.09;95451.50;4340343;32;20189;-62
2023/07/12 00:33:08;;;;;;;0.60;0.60;;;;;;;21.87;89.43;95472.34;4316351;32;20220;-62
2023/07/12 00:35:34;;;;;;;0.50;0.50;;;;;;;21.93;88.49;95487.13;4330896;32;20253;-62
2023/07/12 00:38:00;;;;;;;0.90;0.83;;;;;;;22.02;88.17;95483.44;4341908;32;20212;-62
2023/07/12 00:40:54;;;;;;;0.50;0.50;;;;;;;22.12;87.55;95472.75;4322577;32;20212;-62
2023/07/12 00:43:45;;;;;;;1.90;1.53;;;;;;;22.20;86.85;95470.97;4335371;32;20196;-62
2023/07/12 00:46:13;;;;;;;0.67;0.67;;;;;;;21.89;90.79;95458.47;4324399;32;21441;-62
2023/07/12 00:48:39;;;;;;;1.00;1.00;;;;;;;21.99;89.29;95451.69;4337403;32;20199;-61
2023/07/12 00:51:40;;;;;;;0.40;0.40;;;;;;;22.00;88.49;95440.56;4330257;32;20177;-62
2023/07/12 00:54:16;;;;;;;0.43;0.43;;;;;;;22.01;88.64;95417.78;4331436;32;20173;-62
2023/07/12 00:56:42;;;;;;;0.57;0.57;;;;;;;21.87;89.39;95379.72;4342324;32;20197;-62
2023/07/12 00:59:14;;;;;;;0.67;0.67;;;;;;;21.85;90.04;95382.00;4349285;32;20291;-62
2023/07/12 01:01:39;;;;;;;0.80;0.67;;;;;;;21.87;90.41;95412.91;4340115;32;20177;-62
2023/07/12 01:04:07;;;;;;;0.73;0.73;;;;;;;22.01;89.71;95425.12;4336725;32;20221;-62
2023/07/12 01:06:34;;;;;;;0.87;0.87;;;;;;;21.98;90.51;95442.03;4349115;32;20257;-62
2023/07/12 01:09:07;;;;;;;0.50;0.50;;;;;;;22.06;88.89;95439.09;4341149;32;20181;-62
2023/07/12 01:11:32;;;;;;;0.53;0.53;;;;;;;21.98;90.82;95423.13;4342447;32;20185;-62
2023/07/12 01:13:57;;;;;;;1.30;1.00;;;;;;;21.98;90.43;95431.22;4346979;32;20251;-62
2023/07/12 01:16:23;;;;;;;0.70;0.70;;;;;;;21.95;90.72;95457.81;4347671;32;20245;-62
2023/07/12 01:18:49;;;;;;;0.40;0.40;;;;;;;22.09;88.63;95459.19;4348340;32;20185;-62
2023/07/12 01:21:27;;;;;;;0.70;0.70;;;;;;;21.89;90.95;95458.47;4346239;32;20195;-62
2023/07/12 01:23:53;;;;;;;1.13;1.13;;;;;;;21.95;90.87;95465.94;4345603;32;20185;-61
2023/07/12 01:26:23;;;;;;;0.57;0.57;;;;;;;21.94;91.04;95468.97;4363537;32;20199;-62
2023/07/12 01:28:53;;;;;;;0.33;0.33;;;;;;;21.92;91.16;95458.53;4355147;32;20243;-61
2023/07/12 01:31:19;;;;;;;1.40;1.33;;;;;;;21.89;91.14;95445.75;4355107;32;20200;-62
2023/07/12 01:33:44;;;;;;;0.63;0.63;;;;;;;22.05;90.38;95440.22;4349449;32;20182;-62
2023/07/12 01:36:10;;;;;;;0.40;0.40;;;;;;;21.93;91.20;95422.28;4355372;32;20221;-62
2023/07/12 01:38:35;;;;;;;1.70;0.93;;;;;;;21.95;90.24;95403.00;4346728;32;20200;-62
2023/07/12 01:41:01;;;;;;;0.47;0.47;;;;;;;21.97;90.87;95389.13;4362594;32;20239;-62
2023/07/12 01:43:27;;;;;;;0.30;0.30;;;;;;;21.91;91.55;95378.62;4360460;32;20181;-61
2023/07/12 01:45:53;;;;;;;0.93;0.93;;;;;;;21.93;90.85;95359.34;4343354;32;20181;-61
2023/07/12 01:48:18;;;;;;;1.70;1.03;;;;;;;21.99;90.45;95346.31;4351387;32;20184;-61
2023/07/12 01:50:43;;;;;;;1.57;1.07;;;;;;;21.87;91.08;95337.28;4346583;32;20200;-61
2023/07/12 01:53:10;;;;;;;5.30;0.93;;;;;;;21.97;90.61;95349.38;4338586;32;20284;-62
2023/07/12 01:55:36;;;;;;;0.87;0.87;;;;;;;22.09;90.29;95348.41;4339794;32;20200;-62
2023/07/12 01:58:01;;;;;;;0.60;0.60;;;;;;;22.16;89.19;95341.16;4342397;32;20185;-62
2023/07/12 02:00:26;;;;;;;0.93;0.93;;;;;;;22.03;90.78;95336.37;4337734;32;20185;-62
2023/07/12 02:02:51;;;;;;;0.50;0.50;;;;;;;22.15;89.72;95328.03;4341825;32;20197;-59
2023/07/12 02:05:18;;;;;;;0.47;0.47;;;;;;;22.07;90.41;95324.44;4350623;32;20170;-62
2023/07/12 02:07:44;;;;;;;0.63;0.63;;;;;;;21.79;92.02;95327.53;4342432;32;20215;-62
2023/07/12 02:10:19;;;;;;;4.13;0.90;;;;;;;21.74;93.34;95325.12;4351607;32;20181;-62
2023/07/12 02:12:45;;;;;;;0.40;0.40;;;;;;;21.84;93.22;95324.50;4339630;32;20200;-62
2023/07/12 02:15:12;;;;;;;0.30;0.30;;;;;;;21.77;93.86;95320.94;4337197;32;20277;-62
2023/07/12 02:17:39;;;;;;;1.60;1.07;;;;;;;21.85;93.45;95330.66;4358645;32;20192;-62
2023/07/12 02:20:05;;;;;;;9.73;1.93;;;;;;;21.94;92.64;95331.19;4356120;32;20189;-62
2023/07/12 02:22:32;;;;;;;1.07;1.07;;;;;;;21.99;91.91;95332.81;4339797;32;20227;-62
2023/07/12 02:24:58;;;;;;;2.83;0.90;;;;;;;22.00;91.14;95334.38;4362555;32;20189;-62
2023/07/12 02:27:23;;;;;;;0.40;0.40;;;;;;;22.08;90.01;95309.00;4352164;32;20216;-61
2023/07/12 02:29:49;;;;;;;0.50;0.50;;;;;;;21.88;91.65;95287.50;4351483;32;20177;-61
2023/07/12 02:32:14;;;;;;;0.53;0.53;;;;;;;21.86;91.57;95278.97;4350576;32;20181;-62
2023/07/12 02:34:40;;;;;;;3.60;1.73;;;;;;;21.91;90.85;95270.56;4341324;32;20300;-62
2023/07/12 02:37:05;;;;;;;0.50;0.50;;;;;;;21.95;90.65;95259.81;4342149;32;20253;-62
2023/07/12 02:39:31;;;;;;;0.60;0.60;;;;;;;22.07;88.59;95240.66;4339253;32;20315;-62
2023/07/12 02:41:56;;;;;;;0.33;0.33;;;;;;;22.09;88.54;95215.97;4354188;32;20211;-62
2023/07/12 02:44:21;;;;;;;1.67;1.13;;;;;;;22.09;89.10;95203.25;4347394;32;20244;-62
2023/07/12 02:46:47;;;;;;;0.97;0.97;;;;;;;22.17;88.60;95221.09;4335272;32;20177;-62
2023/07/12 02:49:13;;;;;;;1.40;1.30;;;;;;;22.24;87.96;95221.16;4345674;32;20272;-62
2023/07/12 02:51:38;;;;;;;0.63;0.63;;;;;;;22.04;90.38;95216.31;4352817;32;20259;-62
2023/07/12 02:54:04;;;;;;;0.63;0.63;;;;;;;21.93;90.80;95216.94;4354671;32;20181;-62
2023/07/12 02:56:29;;;;;;;0.80;0.80;;;;;;;21.99;89.45;95208.50;4349114;32;20181;-61
2023/07/12 02:58:55;;;;;;;0.83;0.83;;;;;;;22.03;88.76;95196.59;4337592;32;20196;-62
2023/07/12 03:01:20;;;;;;;0.83;0.83;;;;;;;22.05;88.56;95197.03;4353051;32;20232;-62
2023/07/12 03:03:45;;;;;;;0.70;0.70;;;;;;;22.07;88.87;95204.75;4329111;32;20212;-61
2023/07/12 03:06:11;;;;;;;0.87;0.87;;;;;;;21.86;91.08;95206.03;4341192;32;20173;-61
2023/07/12 03:08:37;;;;;;;1.77;0.73;;;;;;;21.85;90.87;95201.00;4350689;32;20189;-61
2023/07/12 03:11:05;;;;;;;0.67;0.67;;;;;;;22.00;89.66;95205.47;4356179;32;20197;-62
2023/07/12 03:13:30;;;;;;;0.50;0.50;;;;;;;21.97;89.86;95197.31;4339903;32;20185;-61
2023/07/12 03:15:56;;;;;;;1.00;1.00;;;;;;;22.00;89.56;95199.28;4353281;32;20192;-62
2023/07/12 03:18:21;;;;;;;0.70;0.70;;;;;;;22.01;89.23;95181.94;4341233;32;20252;-62
2023/07/12 03:20:47;;;;;;;5.63;1.50;;;;;;;21.88;89.94;95179.44;4353681;32;20224;-62
2023/07/12 03:23:12;;;;;;;0.40;0.40;;;;;;;21.87;90.39;95175.19;4350013;32;20433;-62
2023/07/12 03:25:37;;;;;;;1.10;0.87;;;;;;;21.88;89.98;95157.81;4347865;32;20211;-62
2023/07/12 03:28:03;;;;;;;0.73;0.73;;;;;;;21.97;89.12;95160.25;4342167;32;20244;-62
2023/07/12 03:30:28;;;;;;;0.73;0.73;;;;;;;21.92;89.91;95166.75;4358658;32;20232;-62
2023/07/12 03:32:53;;;;;;;0.60;0.60;;;;;;;21.87;90.37;95169.78;4361640;32;20230;-62
2023/07/12 03:35:19;;;;;;;0.80;0.80;;;;;;;21.91;90.21;95149.00;4337514;32;20272;-61
2023/07/12 03:37:44;;;;;;;0.53;0.53;;;;;;;21.83;90.53;95147.34;4348099;32;20193;-63
2023/07/12 03:40:10;;;;;;;0.90;0.90;;;;;;;21.73;91.18;95129.13;4345945;32;20178;-62
2023/07/12 03:42:35;;;;;;;1.17;0.67;;;;;;;21.90;89.66;95125.81;4348568;32;20185;-61
2023/07/12 03:45:01;;;;;;;1.07;1.07;;;;;;;21.90;89.74;95116.94;4343149;32;20246;-62
2023/07/12 03:47:26;;;;;;;0.93;0.93;;;;;;;21.95;88.70;95112.00;4352968;32;20193;-62
2023/07/12 03:49:51;;;;;;;1.97;1.67;;;;;;;21.83;89.90;95112.22;4350123;32;20216;-62
2023/07/12 03:52:17;;;;;;;0.40;0.40;;;;;;;21.94;88.72;95105.03;4347784;32;20196;-62
2023/07/12 03:54:42;;;;;;;1.10;1.10;;;;;;;22.02;88.51;95113.25;4342993;32;20263;-61
2023/07/12 03:57:07;;;;;;;0.50;0.50;;;;;;;21.93;89.64;95108.09;4345367;32;20202;-61
2023/07/12 03:59:33;;;;;;;1.20;1.10;;;;;;;21.90;89.87;95082.59;4346825;32;20222;-61
2023/07/12 04:01:58;;;;;;;1.00;1.00;;;;;;;21.80;90.12;95080.59;4343352;32;20238;-61
2023/07/12 04:04:23;;;;;;;14.40;1.97;;;;;;;21.92;89.09;95083.00;4355564;32;20260;-62
2023/07/12 04:06:49;;;;;;;0.67;0.67;;;;;;;22.01;87.31;95090.06;4355658;32;20185;-61
2023/07/12 04:09:14;;;;;;;1.17;1.17;;;;;;;21.96;88.20;95088.44;4348655;32;20200;-62
2023/07/12 04:11:41;;;;;;;1.10;1.10;;;;;;;21.87;89.18;95104.94;4356652;32;20189;-62
2023/07/12 04:14:07;;;;;;;1.27;1.27;;;;;;;21.80;90.15;95107.59;4343723;32;20177;-62
2023/07/12 04:16:33;;;;;;;1.23;1.07;;;;;;;21.78;90.23;95118.00;4357087;32;20211;-62
2023/07/12 04:18:58;;;;;;;0.93;0.93;;;;;;;21.74;90.65;95111.78;4333486;32;20186;-62
2023/07/12 04:21:24;;;;;;;1.10;1.10;;;;;;;21.70;90.90;95116.34;4352124;32;20193;-60
2023/07/12 04:23:50;;;;;;;1.27;1.27;;;;;;;21.60;91.76;95114.31;4345557;32;20190;-62
2023/07/12 04:26:20;;;;;;;0.80;0.80;;;;;;;21.75;90.61;95113.31;4337594;32;20186;-62
2023/07/12 04:28:49;;;;;;;0.80;0.80;;;;;;;21.79;90.38;95102.56;4353864;32;20182;-61
2023/07/12 04:31:16;;;;;;;1.20;1.10;;;;;;;21.86;88.79;95103.41;4344926;32;20174;-62
2023/07/12 04:33:41;;;;;;;1.33;0.90;;;;;;;21.90;88.76;95109.63;4356813;32;20181;-61
2023/07/12 04:36:09;;;;;;;8.83;1.43;;;;;;;21.99;88.37;95113.94;4346691;32;20265;-61
2023/07/12 04:38:35;;;;;;;2.07;1.97;;;;;;;21.98;88.34;95110.47;4352350;32;20182;-62
2023/07/12 04:41:01;;;;;;;0.97;0.97;;;;;;;21.91;89.35;95105.78;4354267;32;20196;-62
2023/07/12 04:43:27;;;;;;;0.87;0.87;;;;;;;21.87;89.62;95098.78;4343931;32;20244;-62
2023/07/12 04:45:53;;;;;;;1.43;1.43;;;;;;;21.85;89.31;95115.34;4354108;32;20199;-62
2023/07/12 04:48:19;;;;;;;0.70;0.70;;;;;;;21.78;90.47;95115.28;4351036;32;20197;-62
2023/07/12 04:50:44;;;;;;;1.23;1.23;;;;;;;21.80;90.06;95104.91;4351691;32;20200;-62
2023/07/12 04:53:12;;;;;;;3.63;1.87;;;;;;;21.84;89.55;95094.88;4343887;32;20239;-62
2023/07/12 04:55:37;;;;;;;2.13;1.43;;;;;;;21.97;88.75;95102.75;4345763;32;20211;-62
2023/07/12 04:58:03;;;;;;;1.37;1.27;;;;;;;21.92;88.96;95096.50;4347437;32;20229;-62
2023/07/12 05:00:28;;;;;;;0.93;0.93;;;;;;;21.99;87.88;95101.22;4355118;32;20261;-62
2023/07/12 05:02:54;;;;;;;0.83;0.83;;;;;;;21.89;89.55;95102.66;4351539;32;20193;-62
2023/07/12 05:05:20;;;;;;;1.13;1.13;;;;;;;21.94;89.07;95107.72;4337740;32;20189;-62
2023/07/12 05:07:45;;;;;;;5.93;1.77;;;;;;;21.95;89.16;95112.00;4340785;32;20208;-62
2023/07/12 05:10:11;;;;;;;0.83;0.80;;;;;;;21.96;89.31;95091.16;4342454;32;20201;-62
2023/07/12 05:12:38;;;;;;;0.77;0.77;;;;;;;21.90;89.87;95108.84;4334727;32;20193;-62
2023/07/12 05:15:05;;;;;;;3.10;1.17;;;;;;;22.02;88.97;95105.13;4350362;32;20228;-62
2023/07/12 05:17:30;;;;;;;1.43;1.37;;;;;;;21.92;89.60;95101.91;4338158;32;20243;-62
2023/07/12 05:19:56;;;;;;;1.60;1.50;;;;;;;21.98;89.64;95109.69;4341242;32;20185;-62
2023/07/12 05:22:22;;;;;;;0.83;0.83;;;;;;;22.06;88.61;95100.53;4344843;32;20205;-63
2023/07/12 05:24:48;;;;;;;1.30;1.20;;;;;;;22.11;88.92;95100.19;4353356;32;20180;-62
2023/07/12 05:27:13;;;;;;;0.90;0.90;;;;;;;22.14;88.52;95094.03;4337486;32;20302;-62
2023/07/12 05:29:38;;;;;;;0.80;0.80;;;;;;;22.01;89.40;95090.06;4338179;32;20231;-62
2023/07/12 05:32:04;;;;;;;0.50;0.50;;;;;;;22.19;88.00;95094.50;4346725;32;20200;-62
2023/07/12 05:34:29;;;;;;;1.20;1.20;;;;;;;22.33;86.61;95101.94;4340322;32;20232;-62
2023/07/12 05:36:55;;;;;;;0.73;0.73;;;;;;;22.30;86.58;95097.28;4353323;32;20211;-62
2023/07/12 05:39:20;;;;;;;0.80;0.80;;;;;;;22.39;85.46;95108.56;4355208;32;20209;-62
2023/07/12 05:41:46;;;;;;;1.30;1.30;;;;;;;22.37;85.03;95108.16;4347104;32;20219;-62
2023/07/12 05:44:11;;;;;;;1.43;1.33;;;;;;;22.37;85.37;95110.84;4333351;32;20189;-62
2023/07/12 05:46:37;;;;;;;2.37;0.93;;;;;;;22.31;85.27;95120.44;4344045;32;20185;-62
2023/07/12 05:49:03;;;;;;;0.50;0.50;;;;;;;22.31;85.32;95122.37;4345138;32;20177;-62
2023/07/12 05:51:28;;;;;;;0.77;0.77;;;;;;;22.32;85.12;95130.13;4334278;32;20198;-62
2023/07/12 05:53:53;;;;;;;1.17;1.17;;;;;;;22.31;85.56;95133.19;4331697;32;20193;-60
2023/07/12 05:56:19;;;;;;;0.93;0.80;;;;;;;22.43;84.29;95143.75;4343392;32;20208;-62
2023/07/12 05:58:44;;;;;;;2.50;1.20;;;;;;;22.27;85.11;95149.38;4339883;32;20237;-62
2023/07/12 06:01:09;;;;;;;33.30;3.80;;;;;;;22.20;85.30;95154.72;4333245;32;20299;-60
2023/07/12 06:03:35;;;;;;;2.67;2.40;;;;;;;22.43;82.83;95158.03;4331556;32;20185;-60
2023/07/12 06:06:05;;;;;;;9.17;1.70;;;;;;;22.72;80.70;95152.84;4345945;32;20157;-60
2023/07/12 06:08:30;;;;;;;3.33;1.57;;;;;;;22.85;79.40;95173.09;4348675;32;20193;-60
2023/07/12 06:10:56;;;;;;;3.97;1.67;;;;;;;22.55;83.73;95179.38;4340196;32;20177;-61
2023/07/12 06:13:21;;;;;;;0.77;0.77;;;;;;;22.70;81.60;95190.31;4351875;32;20228;-61
2023/07/12 06:15:47;;;;;;;0.97;0.70;;;;;;;22.75;81.21;95200.78;4348640;32;20234;-59
2023/07/12 06:18:12;;;;;;;1.20;1.10;;;;;;;22.52;83.41;95201.75;4347491;32;20209;-60
2023/07/12 06:20:37;;;;;;;1.13;1.13;;;;;;;22.55;83.44;95192.91;4350007;32;20243;-60
2023/07/12 06:23:03;;;;;;;0.70;0.70;;;;;;;22.61;81.97;95204.94;4342493;32;20227;-59
2023/07/12 06:25:29;;;;;;;0.93;0.93;;;;;;;22.62;82.34;95221.94;4337339;32;20181;-60
2023/07/12 06:27:55;;;;;;;0.97;0.97;;;;;;;22.52;82.81;95225.31;4360137;32;20185;-61
2023/07/12 06:30:20;;;;;;;0.87;0.87;;;;;;;22.55;82.58;95257.03;4347597;32;20185;-60
2023/07/12 06:32:46;;;;;;;0.50;0.50;;;;;;;22.41;82.92;95282.00;4339226;32;20185;-60
2023/07/12 06:35:12;;;;;;;0.60;0.60;;;;;;;22.43;82.76;95271.59;4336608;32;20219;-60
2023/07/12 06:37:37;;;;;;;0.60;0.57;;;;;;;22.50;81.85;95277.06;4352944;32;20189;-60
2023/07/12 06:40:05;;;;;;;5.20;1.43;;;;;;;22.54;80.85;95271.69;4343931;32;20203;-59
2023/07/12 06:42:31;;;;;;;1.10;1.00;;;;;;;22.21;82.60;95259.00;4345927;32;20273;-60
2023/07/12 06:44:56;;;;;;;0.43;0.43;;;;;;;22.22;82.11;95245.09;4343853;32;20208;-58
2023/07/12 06:47:21;;;;;;;1.03;0.93;;;;;;;22.01;83.30;95233.28;4355449;32;20185;-58
2023/07/12 06:49:47;;;;;;;1.23;1.13;;;;;;;22.06;82.46;95251.84;4347154;32;20181;-58
2023/07/12 06:52:12;;;;;;;0.33;0.33;;;;;;;22.00;82.67;95242.50;4343435;32;20196;-58
2023/07/12 06:54:38;;;;;;;1.03;0.90;;;;;;;21.87;84.24;95271.66;4344729;32;20255;-58
2023/07/12 06:57:04;;;;;;;0.70;0.70;;;;;;;21.85;84.57;95290.94;4351186;32;20178;-58
2023/07/12 06:59:29;;;;;;;0.30;0.30;;;;;;;21.90;84.17;95274.41;4354893;32;20299;-58
2023/07/12 07:01:55;;;;;;;2.20;0.90;;;;;;;21.40;86.76;95242.50;4338259;32;20190;-59
2023/07/12 07:04:21;;;;;;;0.50;0.50;;;;;;;21.25;87.85;95204.47;4349359;32;20207;-59
2023/07/12 07:06:46;;;;;;;0.60;0.60;;;;;;;21.48;86.45;95169.31;4343847;32;20199;-58
2023/07/12 07:09:12;;;;;;;0.23;0.23;;;;;;;21.15;87.61;95156.53;4356678;32;20220;-59
2023/07/12 07:11:37;;;;;;;0.50;0.50;;;;;;;21.21;86.75;95241.44;4352856;32;20178;-59
2023/07/12 07:14:03;;;;;;;0.33;0.33;;;;;;;21.72;84.94;95308.50;4342366;32;20219;-59
2023/07/12 07:16:28;;;;;;;0.80;0.80;;;;;;;21.44;85.36;95291.88;4354363;32;20193;-59
2023/07/12 07:18:54;;;;;;;0.50;0.50;;;;;;;21.31;86.33;95331.03;4344953;32;20204;-61
2023/07/12 07:21:19;;;;;;;1.07;0.60;;;;;;;21.29;86.07;95317.88;4356645;32;20219;-58
2023/07/12 07:23:44;;;;;;;0.67;0.67;;;;;;;21.25;86.33;95307.03;4351099;32;20210;-59
2023/07/12 07:26:10;;;;;;;0.67;0.57;;;;;;;21.34;85.68;95297.91;4350867;32;20271;-58
2023/07/12 07:28:37;;;;;;;2.63;0.70;;;;;;;21.41;85.58;95287.22;4347251;32;20193;-58
2023/07/12 07:31:03;;;;;;;0.20;0.20;;;;;;;21.11;86.77;95290.59;4354933;32;20215;-58
2023/07/12 07:33:29;;;;;;;0.47;0.47;;;;;;;21.15;86.40;95282.56;4348206;32;20184;-59
2023/07/12 07:35:55;;;;;;;0.77;0.73;;;;;;;21.08;86.75;95299.41;4337696;32;20182;-59
2023/07/12 07:38:26;;;;;;;0.40;0.40;;;;;;;21.16;87.21;95308.41;4345614;32;20257;-58
2023/07/12 07:40:52;;;;;;;0.40;0.40;;;;;;;20.93;86.43;95297.63;4343478;32;20223;-59
2023/07/12 07:43:18;;;;;;;0.20;0.20;;;;;;;21.06;86.87;95277.41;4353747;32;20177;-58
2023/07/12 07:45:43;;;;;;;0.73;0.73;;;;;;;21.06;87.30;95293.59;4344453;32;20323;-58
2023/07/12 07:48:10;;;;;;;0.80;0.50;;;;;;;21.18;86.16;95277.22;4342474;32;20194;-58
2023/07/12 07:50:35;;;;;;;0.60;0.60;;;;;;;21.23;86.36;95295.81;4349751;32;20195;-58
2023/07/12 07:53:00;;;;;;;0.30;0.30;;;;;;;21.26;85.97;95297.78;4348700;32;20189;-58
2023/07/12 07:55:26;;;;;;;0.30;0.30;;;;;;;21.28;85.68;95283.94;4340198;32;20178;-58
2023/07/12 07:57:52;;;;;;;0.23;0.23;;;;;;;21.31;85.63;95288.63;4351534;32;20205;-58
2023/07/12 08:00:18;;;;;;;0.10;0.10;;;;;;;21.31;85.12;95277.81;4357886;32;20185;-58
2023/07/12 08:02:44;;;;;;;0.60;0.60;;;;;;;21.48;84.26;95277.31;4336326;32;23502;-58
2023/07/12 08:05:11;;;;;;;0.83;0.83;;;;;;;21.09;85.42;95287.47;4338268;32;20206;-59
2023/07/12 08:07:47;;;;;;;0.30;0.30;;;;;;;21.08;86.43;95279.75;4343804;32;20190;-58
2023/07/12 08:10:16;;;;;;;1.13;0.83;;;;;;;21.34;85.33;95266.31;4334337;32;20200;-58
2023/07/12 08:12:42;;;;;;;0.40;0.40;;;;;;;21.43;84.74;95271.44;4351267;32;20250;-58
2023/07/12 08:15:08;;;;;;;0.17;0.17;;;;;;;21.69;83.76;95276.03;4333954;32;20251;-58
2023/07/12 08:17:34;;;;;;;0.20;0.20;;;;;;;21.85;83.25;95280.12;4352154;32;20193;-58
2023/07/12 08:19:59;;;;;;;0.43;0.40;;;;;;;22.11;81.39;95273.91;4348311;32;20185;-58
2023/07/12 08:22:25;;;;;;;0.30;0.30;;;;;;;22.19;81.09;95274.78;4345114;32;20185;-59
2023/07/12 08:24:50;;;;;;;1.80;0.87;;;;;;;22.08;82.27;95261.13;4348599;32;20182;-58
2023/07/12 08:27:16;;;;;;;4.73;0.97;;;;;;;22.02;81.94;95262.63;4356128;32;20186;-58
2023/07/12 08:29:42;;;;;;;1.13;0.63;;;;;;;22.12;82.51;95266.59;4354350;32;20185;-58
2023/07/12 08:32:09;;;;;;;0.67;0.47;;;;;;;21.98;82.58;95252.91;4341045;32;20189;-58
2023/07/12 08:34:34;;;;;;;0.10;0.10;;;;;;;22.15;81.33;95250.44;4332669;32;20205;-58
2023/07/12 08:37:00;;;;;;;0.20;0.20;;;;;;;22.11;81.60;95254.22;4354830;32;20239;-58
2023/07/12 08:39:25;;;;;;;0.43;0.43;;;;;;;22.22;81.37;95250.50;4337632;32;20200;-58
2023/07/12 08:41:51;;;;;;;0.20;0.20;;;;;;;22.45;79.38;95258.47;4353068;32;20299;-58
2023/07/12 08:44:17;;;;;;;0.43;0.20;;;;;;;22.27;81.11;95260.19;4335795;32;20191;-58
2023/07/12 08:46:49;;;;;;;0.40;0.40;;;;;;;22.24;80.97;95258.22;4333572;32;20182;-58
2023/07/12 08:49:17;;;;;;;0.53;0.53;;;;;;;22.35;80.65;95264.53;4338415;32;20299;-58
2023/07/12 08:51:43;;;;;;;1.03;0.70;;;;;;;22.38;80.93;95266.50;4350906;32;20223;-58
2023/07/12 08:54:34;;;;;;;1.27;0.30;;;;;;;22.51;80.69;95264.31;4341214;32;20181;-58
2023/07/12 08:57:20;;;;;;;0.30;0.30;;;;;;;22.41;82.48;95265.78;4335893;32;20224;-58
2023/07/12 08:59:57;;;;;;;0.60;0.50;;;;;;;22.64;80.68;95257.50;4351845;32;20233;-62
2023/07/12 09:02:24;;;;;;;0.20;0.20;;;;;;;22.69;80.47;95259.09;4347716;32;20199;-61
2023/07/12 09:04:51;;;;;;;0.43;0.43;;;;;;;22.77;79.94;95268.84;4358223;32;20188;-62
2023/07/12 09:07:29;;;;;;;0.77;0.30;;;;;;;22.77;81.45;95258.00;4334302;32;20215;-58
2023/07/12 09:09:57;;;;;;;0.60;0.60;;;;;;;22.93;79.12;95251.22;4347737;32;20176;-60
2023/07/12 09:12:30;;;;;;;0.43;0.43;;;;;;;22.98;78.84;95247.41;4342158;32;20212;-62
2023/07/12 09:15:03;;;;;;;0.40;0.40;;;;;;;23.10;78.28;95252.50;4330477;32;20238;-57
2023/07/12 09:17:35;;;;;;;0.10;0.10;;;;;;;23.20;78.29;95253.75;4351504;32;20189;-62
2023/07/12 09:20:02;;;;;;;1.43;0.73;;;;;;;23.21;79.09;95247.19;4359532;32;20235;-61
2023/07/12 09:22:29;;;;;;;0.47;0.47;;;;;;;23.28;78.45;95253.41;4341541;32;20201;-62
2023/07/12 09:24:56;;;;;;;1.53;0.83;;;;;;;23.34;77.35;95248.44;4351801;32;20196;-60
2023/07/12 09:27:27;;;;;;;3.10;1.23;;;;;;;23.26;77.63;95244.16;4339833;32;20181;-56
2023/07/12 09:30:01;;;;;;;0.43;0.43;;;;;;;23.23;77.05;95236.75;4357847;32;20229;-54
2023/07/12 09:32:35;;;;;;;0.60;0.60;;;;;;;23.33;76.74;95237.97;4348182;32;20192;-54
2023/07/12 09:35:21;;;;;;;0.57;0.33;;;;;;;23.41;76.51;95234.94;4345161;32;20265;-55
2023/07/12 09:37:46;;;;;;;2.73;0.60;;;;;;;23.51;76.31;95236.16;4346535;32;20226;-53
2023/07/12 09:40:16;;;;;;;0.10;0.10;;;;;;;23.52;75.91;95240.44;4330161;32;20256;-57
2023/07/12 09:42:48;;;;;;;0.50;0.50;;;;;;;23.60;75.50;95231.22;4349297;32;20215;-57
2023/07/12 09:45:13;;;;;;;0.73;0.73;;;;;;;23.61;75.27;95230.06;4351161;32;20197;-55
2023/07/12 09:47:43;;;;;;;0.20;0.20;;;;;;;23.68;75.00;95230.13;4356912;32;20196;-56
2023/07/12 09:50:39;;;;;;;1.03;0.80;;;;;;;23.74;74.68;95228.56;4335975;32;20235;-56
2023/07/12 09:53:17;;;;;;;0.30;0.30;;;;;;;23.77;74.61;95219.69;4341244;32;20192;-54
2023/07/12 09:55:52;;;;;;;0.37;0.37;;;;;;;23.88;73.79;95225.94;4344272;32;20193;-56
2023/07/12 09:58:23;;;;;;;0.30;0.30;;;;;;;23.92;73.69;95229.44;4343305;32;20243;-57
2023/07/12 10:01:05;;;;;;;0.30;0.30;;;;;;;23.93;73.34;95230.22;4344650;32;20197;-57
2023/07/12 10:03:45;;;;;;;1.37;0.57;;;;;;;24.03;72.98;95237.63;4353889;32;20387;-54
2023/07/12 10:06:28;;;;;;;0.50;0.50;;;;;;;24.07;72.89;95232.22;4342189;32;20229;-56
2023/07/12 10:09:04;;;;;;;0.40;0.40;;;;;;;24.09;72.40;95243.47;4356263;32;20352;-61
2023/07/12 10:11:43;;;;;;;2.30;0.67;;;;;;;24.21;71.72;95251.25;4341304;32;20196;-55
2023/07/12 10:14:12;;;;;;;0.50;0.50;;;;;;;24.29;70.63;95240.06;4347039;32;20203;-57
2023/07/12 10:16:45;;;;;;;0.40;0.40;;;;;;;24.23;70.64;95247.00;4339800;32;20197;-56
2023/07/12 10:19:21;;;;;;;2.30;1.23;;;;;;;24.30;69.94;95244.34;4356871;32;20296;-57
2023/07/12 10:21:49;;;;;;;2.13;0.70;;;;;;;24.31;70.20;95240.47;4350823;32;20188;-57
2023/07/12 10:24:16;;;;;;;2.77;1.57;;;;;;;24.36;70.66;95242.00;4351709;32;20299;-57
2023/07/12 10:26:44;;;;;;;0.37;0.37;;;;;;;24.44;70.58;95238.16;4326238;32;20221;-56
2023/07/12 10:29:45;;;;;;;0.30;0.30;;;;;;;24.47;69.84;95248.25;4349914;32;20186;-56
2023/07/12 10:32:20;;;;;;;0.93;0.93;;;;;;;24.51;69.53;95243.63;4331093;32;20228;-57
2023/07/12 10:34:53;;;;;;;0.50;0.50;;;;;;;24.54;69.27;95247.47;4352738;32;20218;-56
2023/07/12 10:37:31;;;;;;;0.20;0.20;;;;;;;24.52;69.25;95247.09;4348853;32;20200;-57
2023/07/12 10:39:58;;;;;;;0.37;0.37;;;;;;;24.53;68.85;95252.13;4351738;32;20181;-57
2023/07/12 10:42:35;;;;;;;0.50;0.50;;;;;;;24.49;68.70;95245.94;4351577;32;20240;-57
2023/07/12 10:45:03;;;;;;;0.27;0.27;;;;;;;24.51;68.37;95248.25;4349670;32;20259;-58
2023/07/12 10:47:33;;;;;;;0.30;0.30;;;;;;;24.55;68.28;95247.09;4341481;32;20216;-56
2023/07/12 10:50:02;;;;;;;0.70;0.70;;;;;;;24.53;67.77;95251.34;4347915;32;20205;-57
2023/07/12 10:52:32;;;;;;;0.77;0.77;;;;;;;24.58;67.70;95248.25;4339197;32;20188;-57
2023/07/12 10:55:03;;;;;;;0.50;0.50;;;;;;;24.58;67.76;95261.81;4345099;32;20203;-57
2023/07/12 10:58:14;;;;;;;0.80;0.80;;;;;;;24.67;67.34;95273.09;4351651;32;20237;-55
2023/07/12 11:00:49;;;;;;;0.40;0.40;;;;;;;24.63;67.74;95269.59;4332399;32;20247;-58
2023/07/12 11:03:19;;;;;;;0.30;0.30;;;;;;;24.66;67.44;95272.31;4345273;32;20193;-58
2023/07/12 11:05:56;;;;;;;0.37;0.37;;;;;;;24.70;67.69;95274.28;4344748;32;20359;-57
2023/07/12 11:08:31;;;;;;;0.50;0.50;;;;;;;24.59;67.73;95272.28;4355072;32;20243;-58
2023/07/12 11:11:09;;;;;;;0.67;0.67;;;;;;;24.68;67.44;95261.09;4335436;32;20181;-58
2023/07/12 11:13:46;;;;;;;0.93;0.93;;;;;;;24.82;66.71;95261.09;4353512;32;20207;-58
2023/07/12 11:16:17;;;;;;;0.77;0.77;;;;;;;24.89;67.87;95257.63;4358351;32;20191;-59
2023/07/12 11:18:54;;;;;;;0.93;0.93;;;;;;;24.86;67.04;95263.81;4343379;32;20248;-59
2023/07/12 11:21:41;;;;;;;0.57;0.57;;;;;;;24.85;67.01;95248.69;4355435;32;20199;-59
2023/07/12 11:24:30;;;;;;;0.50;0.50;;;;;;;24.95;67.29;95250.66;4343714;32;20215;-60
2023/07/12 11:26:58;;;;;;;0.83;0.73;;;;;;;24.97;66.67;95245.63;4325180;32;20196;-57
2023/07/12 11:29:31;;;;;;;1.50;1.40;;;;;;;24.95;66.90;95239.78;4355100;32;20177;-59
2023/07/12 11:32:20;;;;;;;5.30;4.83;;;;;;;25.04;67.70;95236.72;4356705;32;20203;-58
2023/07/12 11:34:46;;;;;;;2.80;2.67;;;;;;;25.18;67.72;95232.03;4351353;32;20177;-58
2023/07/12 11:37:40;;;;;;;1.23;1.23;;;;;;;25.11;67.76;95240.22;4357086;32;20226;-59
2023/07/12 11:40:17;;;;;;;1.37;1.27;;;;;;;25.17;67.13;95241.34;4347917;32;20199;-58